Terminal Aerodrome Forecast
Issued by NWS

Home | Current Version | Previous Version | Text Only | Print | Product List | Glossary On
Versions: 1 2 3 4 5 6 7 8 9 10 11 12 13 14 15 16 17 18 19
000
FTUS45 KBOU 240123 AAB
TAFBJC
TAF AMD
KBJC 240123Z 2401/2424 34012KT P6SM SCT090 BKN120
      TEMPO 2401/2402 VRB15G25KT -SHRA BKN080 BKN120
     FM240200 29011KT P6SM SCT090 SCT140 BKN200
     FM240700 34006KT P6SM FEW140 BKN220
     FM241300 VRB04KT P6SM FEW140 SCT200
     FM241700 07006KT P6SM SCT080 BKN140 PROB30 2421/2424 VRB20G30KT
      -TSRA BKN080CB=

USA.gov is the U.S. government's official web portal to all federal, state and local government web resources and services.